Ashern, Canada
Current Conditions -  °F | °C
As of 12:00 PM on Thursday 27 Nov 2014 (Local Time) from CYDN Reporting Station
Overcast Overcast  
Wind Chill: -8°   Ceiling: 4200
Heat Index:   Visibility: 9mi
Dew Point: -2°   Wind: 6mph
Humidity: 78%   Direction: 60°ENE
Pressure: 30.21"   Gusts: NA
Location:  51.18°N, 98.33°W
Report Text: CYDN 271800Z AUTO 06005KT 9SM OVC042 M16/M19 A3021 RMK SLP266
Loading
Personal Weather Stations






























Interactive Weather Map New forecast layout! Learn more

10-Day Weather Forecast

Advertisements
Track Severe Weather on mobile